Time;durP1;ratioP1;P1;durP2;ratioP2;P2;SDS_P1;SDS_P2;PMS_P1;PMS_P2;Temp;Humidity;BMP_temperature;BMP_pressure;BME280_temperature;BME280_humidity;BME280_pressure;Samples;Min_cycle;Max_cycle;Signal;HPM_P1;HPM_P2
2023/03/16 00:00:12;;;;;;;;;;;;;;;16.44;63.57;99869.75;7403666;19;1137;-50
2023/03/16 00:02:41;;;;;;;;;;;;;;;16.38;63.54;99883.66;7403736;19;1836;-49
2023/03/16 00:05:09;;;;;;;;;;;;;;;16.37;63.42;99865.97;7403971;19;1904;-50
2023/03/16 00:07:38;;;;;;;;;;;;;;;16.40;63.37;99887.88;7403326;19;1881;-50
2023/03/16 00:10:11;;;;;;;;;;;;;;;16.37;63.49;99882.81;7402640;19;1777;-50
2023/03/16 00:12:42;;;;;;;;;;;;;;;16.40;63.55;99887.03;7405366;19;1008;-50
2023/03/16 00:15:11;;;;;;;;;;;;;;;16.39;63.67;99882.66;7403861;19;2587;-49
2023/03/16 00:17:39;;;;;;;;;;;;;;;16.40;63.83;99890.53;7404156;19;2518;-50
2023/03/16 00:20:08;;;;;;;;;;;;;;;16.41;63.44;99886.03;7404528;19;2452;-49
2023/03/16 00:22:37;;;;;;;;;;;;;;;16.39;63.33;99894.19;7403378;19;2087;-49
2023/03/16 00:25:05;;;;;;;;;;;;;;;16.41;63.58;99897.59;7403419;19;2144;-49
2023/03/16 00:27:36;;;;;;;;;;;;;;;16.41;63.29;99897.59;7403556;19;2446;-49
2023/03/16 00:30:05;;;;;;;;;;;;;;;16.38;63.30;99905.00;7403820;19;1039;-49
2023/03/16 00:32:34;;;;;;;;;;;;;;;16.38;63.69;99913.84;7404007;19;1907;-49
2023/03/16 00:35:03;;;;;;;;;;;;;;;16.39;63.31;99906.69;7402135;19;2177;-49
2023/03/16 00:37:32;;;;;;;;;;;;;;;16.38;63.29;99908.53;7401801;19;1781;-49
2023/03/16 00:40:02;;;;;;;;;;;;;;;16.38;63.61;99905.84;7402198;19;1971;-50
2023/03/16 00:42:33;;;;;;;;;;;;;;;16.37;63.32;99897.97;7401391;19;1853;-49
2023/03/16 00:45:04;;;;;;;;;;;;;;;16.35;63.94;99892.78;7403985;19;2140;-49
2023/03/16 00:47:33;;;;;;;;;;;;;;;16.39;63.69;99885.34;7403445;19;1801;-50
2023/03/16 00:50:02;;;;;;;;;;;;;;;16.38;63.84;99891.69;7402449;19;1962;-50
2023/03/16 00:52:31;;;;;;;;;;;;;;;16.36;63.63;99893.66;7402992;19;1854;-50
2023/03/16 00:55:02;;;;;;;;;;;;;;;16.37;63.93;99911.31;7404385;19;1016;-49
2023/03/16 00:57:30;;;;;;;;;;;;;;;16.36;63.71;99909.66;7404346;19;1030;-49
2023/03/16 00:59:59;;;;;;;;;;;;;;;16.30;63.48;99909.22;7403080;19;2314;-49
2023/03/16 01:02:29;;;;;;;;;;;;;;;16.33;63.47;99925.91;7400213;19;1905;-49
2023/03/16 01:04:58;;;;;;;;;;;;;;;16.36;63.42;99925.66;7395370;19;2301;-48
2023/03/16 01:07:26;;;;;;;;;;;;;;;16.33;63.40;99928.59;7398139;19;2431;-49
2023/03/16 01:09:54;;;;;;;;;;;;;;;16.27;63.64;99928.19;7398364;19;1753;-49
2023/03/16 01:12:23;;;;;;;;;;;;;;;16.31;63.60;99934.06;7400011;19;1652;-49
2023/03/16 01:14:51;;;;;;;;;;;;;;;16.30;63.53;99919.88;7398996;19;2254;-49
2023/03/16 01:17:21;;;;;;;;;;;;;;;16.29;63.49;99915.53;7399122;19;2146;-49
2023/03/16 01:19:52;;;;;;;;;;;;;;;16.30;63.85;99911.03;7398413;19;1939;-49
2023/03/16 01:22:20;;;;;;;;;;;;;;;16.30;63.55;99932.38;7398935;19;2049;-49
2023/03/16 01:24:48;;;;;;;;;;;;;;;16.32;63.46;99935.75;7398519;19;2254;-49
2023/03/16 01:27:17;;;;;;;;;;;;;;;16.26;63.38;99921.13;7398444;19;1772;-49
2023/03/16 01:29:45;;;;;;;;;;;;;;;16.34;63.28;99927.63;7400275;19;1135;-49
2023/03/16 01:32:15;;;;;;;;;;;;;;;16.35;63.34;99945.31;7399609;19;2000;-50
2023/03/16 01:34:43;;;;;;;;;;;;;;;16.31;63.40;99942.06;7398343;19;1810;-49
2023/03/16 01:37:14;;;;;;;;;;;;;;;16.29;63.47;99936.88;7398787;19;1857;-49
2023/03/16 01:39:42;;;;;;;;;;;;;;;16.29;63.64;99938.69;7399489;19;2016;-49
2023/03/16 01:42:11;;;;;;;;;;;;;;;16.27;63.79;99938.84;7398637;19;1850;-49
2023/03/16 01:44:53;;;;;;;;;;;;;;;16.29;63.53;99942.22;7399362;19;1749;-50
2023/03/16 01:47:21;;;;;;;;;;;;;;;16.32;63.41;99937.59;7398321;19;1927;-49
2023/03/16 01:49:53;;;;;;;;;;;;;;;16.31;63.66;99950.06;7399189;19;1732;-49
2023/03/16 01:52:27;;;;;;;;;;;;;;;16.30;63.82;99945.72;7399485;19;1192;-49
2023/03/16 01:54:58;;;;;;;;;;;;;;;16.32;63.50;99942.94;7399436;19;1470;-50
2023/03/16 01:57:29;;;;;;;;;;;;;;;16.27;63.87;99929.97;7398992;19;2102;-49
2023/03/16 02:00:06;;;;;;;;;;;;;;;16.26;63.67;99950.50;7398617;19;2116;-49
2023/03/16 02:02:35;;;;;;;;;;;;;;;16.26;63.87;99950.50;7397790;19;2122;-49
2023/03/16 02:05:06;;;;;;;;;;;;;;;16.24;63.93;99944.44;7396253;19;2118;-50
2023/03/16 02:07:39;;;;;;;;;;;;;;;16.26;63.77;99952.31;7396553;19;1970;-50
2023/03/16 02:10:09;;;;;;;;;;;;;;;16.25;63.73;99956.81;7396528;19;2052;-50
2023/03/16 02:12:37;;;;;;;;;;;;;;;16.24;64.06;99956.94;7399106;19;1059;-49
2023/03/16 02:15:06;;;;;;;;;;;;;;;16.23;63.94;99963.25;7397952;19;2044;-49
2023/03/16 02:17:36;;;;;;;;;;;;;;;16.23;63.85;99953.41;7398055;19;1944;-49
2023/03/16 02:20:10;;;;;;;;;;;;;;;16.25;63.67;99963.97;7398256;19;2107;-49
2023/03/16 02:22:44;;;;;;;;;;;;;;;16.21;63.90;99966.06;7397642;19;1865;-49
2023/03/16 02:25:15;;;;;;;;;;;;;;;16.21;63.71;99966.06;7401984;19;1960;-49
2023/03/16 02:27:47;;;;;;;;;;;;;;;16.22;63.72;99973.09;7404781;19;2358;-49
2023/03/16 02:30:20;;;;;;;;;;;;;;;16.24;63.47;99965.78;7404310;19;1766;-49
2023/03/16 02:32:51;;;;;;;;;;;;;;;16.24;63.44;99970.28;7406467;19;1804;-49
2023/03/16 02:35:19;;;;;;;;;;;;;;;16.24;63.78;99962.28;7404472;19;1707;-50
2023/03/16 02:37:48;;;;;;;;;;;;;;;16.23;63.49;99974.75;7404562;19;2077;-49
2023/03/16 02:40:20;;;;;;;;;;;;;;;16.24;63.40;99991.63;7404720;19;1946;-50
2023/03/16 02:42:53;;;;;;;;;;;;;;;16.21;63.83;99982.06;7403391;19;2142;-50
2023/03/16 02:45:26;;;;;;;;;;;;;;;16.20;64.07;99993.72;7402952;19;2028;-50
2023/03/16 02:47:55;;;;;;;;;;;;;;;16.18;63.70;99993.00;7403917;19;1587;-49
2023/03/16 02:50:23;;;;;;;;;;;;;;;16.55;63.66;100013.72;7405162;19;1868;-49
2023/03/16 02:52:51;;;;;;;;;;;;;;;17.68;60.22;99991.75;7404339;19;1825;-49
2023/03/16 02:55:20;;;;;;;;;;;;;;;18.81;57.20;99987.09;7404218;19;2131;-49
2023/03/16 02:57:48;;;;;;;;;;;;;;;19.49;55.56;99977.56;7405544;19;2056;-49
2023/03/16 03:00:17;;;;;;;;;;;;;;;19.53;55.43;99991.50;7404672;19;2047;-50
2023/03/16 03:02:48;;;;;;;;;;;;;;;19.75;54.98;100000.91;7405088;19;1888;-49
2023/03/16 03:05:17;;;;;;;;;;;;;;;19.85;55.05;100005.13;7402838;19;2049;-49
2023/03/16 03:07:45;;;;;;;;;;;;;;;19.85;55.00;99993.56;7402077;19;1756;-50
2023/03/16 03:10:13;;;;;;;;;;;;;;;19.81;55.17;100000.25;7403854;19;1723;-49
2023/03/16 03:12:42;;;;;;;;;;;;;;;19.88;55.12;100001.31;7403938;19;1971;-49
2023/03/16 03:15:12;;;;;;;;;;;;;;;19.91;54.89;100005.50;7403727;19;1977;-49
2023/03/16 03:17:41;;;;;;;;;;;;;;;19.90;54.92;99995.78;7403593;19;2043;-49
2023/03/16 03:20:15;;;;;;;;;;;;;;;20.01;54.81;100016.97;7403843;19;1802;-49
2023/03/16 03:22:44;;;;;;;;;;;;;;;20.03;54.82;100009.59;7403351;19;1935;-50
2023/03/16 03:25:12;;;;;;;;;;;;;;;19.97;55.29;100015.59;7403161;19;2229;-49
2023/03/16 03:27:41;;;;;;;;;;;;;;;19.92;55.42;100017.94;7403340;19;2100;-49
2023/03/16 03:30:11;;;;;;;;;;;;;;;19.83;55.76;100035.81;7402514;19;1839;-49
2023/03/16 03:32:39;;;;;;;;;;;;;;;19.89;55.66;100034.34;7404373;19;1090;-49
2023/03/16 03:35:11;;;;;;;;;;;;;;;19.98;55.19;100038.78;7400046;19;1752;-49
2023/03/16 03:37:43;;;;;;;;;;;;;;;19.93;55.48;100041.06;7402620;19;1764;-49
2023/03/16 03:40:14;;;;;;;;;;;;;;;20.01;55.11;100039.25;7401641;19;2059;-49
2023/03/16 03:42:42;;;;;;;;;;;;;;;20.00;55.11;100036.75;7403363;19;2008;-48
2023/03/16 03:45:12;;;;;;;;;;;;;;;19.89;55.60;100056.66;7400567;19;1857;-49
2023/03/16 03:47:40;;;;;;;;;;;;;;;19.90;55.43;100052.16;7402580;19;1864;-49
2023/03/16 03:50:10;;;;;;;;;;;;;;;20.13;55.22;100055.94;7403272;19;2059;-49
2023/03/16 03:52:38;;;;;;;;;;;;;;;20.19;55.04;100060.69;7403779;19;1055;-49
2023/03/16 03:55:10;;;;;;;;;;;;;;;20.16;54.86;100055.63;7402865;19;3271;-49
2023/03/16 03:57:38;;;;;;;;;;;;;;;20.26;54.76;100059.03;7402482;19;2091;-49
2023/03/16 04:00:10;;;;;;;;;;;;;;;20.00;55.39;100063.59;7401860;19;2016;-49
2023/03/16 04:02:39;;;;;;;;;;;;;;;19.12;57.77;100077.84;7401845;19;2165;-49
2023/03/16 04:05:08;;;;;;;;;;;;;;;18.57;58.84;100076.03;7397727;19;2093;-49
2023/03/16 04:07:36;;;;;;;;;;;;;;;18.22;60.14;100093.69;7400123;19;2297;-49
2023/03/16 04:10:04;;;;;;;;;;;;;;;18.36;59.74;100086.13;7398792;19;2049;-49
2023/03/16 04:12:35;;;;;;;;;;;;;;;18.74;58.96;100089.59;7399837;19;1640;-49
2023/03/16 04:15:04;;;;;;;;;;;;;;;19.15;57.61;100082.03;7400732;19;2078;-49
2023/03/16 04:17:33;;;;;;;;;;;;;;;19.34;57.20;100079.19;7402540;19;2057;-48
2023/03/16 04:20:02;;;;;;;;;;;;;;;19.41;56.80;100092.81;7401428;19;1942;-49
2023/03/16 04:22:30;;;;;;;;;;;;;;;19.31;56.98;100092.91;7401193;19;1788;-49
2023/03/16 04:24:58;;;;;;;;;;;;;;;19.35;57.10;100096.13;7399050;19;2147;-48
2023/03/16 04:27:27;;;;;;;;;;;;;;;19.30;57.14;100106.44;7399867;19;1913;-49
2023/03/16 04:29:58;;;;;;;;;;;;;;;19.26;57.21;100122.03;7401992;19;1714;-49
2023/03/16 04:32:26;;;;;;;;;;;;;;;19.19;57.48;100128.97;7401483;19;1809;-49
2023/03/16 04:34:55;;;;;;;;;;;;;;;19.20;57.34;100125.28;7399132;19;2156;-49
2023/03/16 04:37:24;;;;;;;;;;;;;;;19.24;57.40;100126.69;7400155;19;2065;-49
2023/03/16 04:39:52;;;;;;;;;;;;;;;19.28;57.39;100138.78;7399213;19;2045;-49
2023/03/16 04:42:20;;;;;;;;;;;;;;;19.26;57.22;100132.75;7400983;19;2063;-49
2023/03/16 04:44:49;;;;;;;;;;;;;;;19.30;57.32;100136.81;7398906;19;1929;-49
2023/03/16 04:47:22;;;;;;;;;;;;;;;19.34;57.31;100148.91;7317907;19;13709;-49
2023/03/16 04:49:50;;;;;;;;;;;;;;;19.34;57.69;100154.25;7400716;19;1643;-49
2023/03/16 04:52:18;;;;;;;;;;;;;;;19.35;57.72;100174.69;7399478;19;1643;-49
2023/03/16 04:54:47;;;;;;;;;;;;;;;19.38;57.96;100171.72;7401993;19;2205;-49
2023/03/16 04:57:18;;;;;;;;;;;;;;;19.31;58.09;100181.38;7402349;19;2036;-49
2023/03/16 04:59:46;;;;;;;;;;;;;;;19.26;58.56;100178.31;7402559;19;1822;-49
2023/03/16 05:02:15;;;;;;;;;;;;;;;19.21;58.35;100202.88;7403004;19;2091;-49
2023/03/16 05:04:46;;;;;;;;;;;;;;;19.33;58.28;100200.00;7401660;19;2089;-49
2023/03/16 05:07:14;;;;;;;;;;;;;;;19.23;58.43;100195.53;7400321;19;1884;-49
2023/03/16 05:09:43;;;;;;;;;;;;;;;19.18;58.76;100196.97;7402195;19;1820;-49
2023/03/16 05:12:12;;;;;;;;;;;;;;;19.23;58.71;100208.09;7403546;19;1284;-48
2023/03/16 05:14:40;;;;;;;;;;;;;;;19.30;58.74;100213.69;7402285;19;1835;-49
2023/03/16 05:17:08;;;;;;;;;;;;;;;19.41;58.63;100208.94;7400303;19;1730;-49
2023/03/16 05:19:37;;;;;;;;;;;;;;;19.44;58.47;100222.06;7400657;19;2059;-49
2023/03/16 05:22:08;;;;;;;;;;;;;;;19.36;58.73;100234.53;7400766;19;2102;-48
2023/03/16 05:24:37;;;;;;;;;;;;;;;18.83;60.21;100228.03;7399968;19;1932;-50
2023/03/16 05:27:05;;;;;;;;;;;;;;;18.68;59.96;100241.88;7401135;19;2028;-49
2023/03/16 05:29:34;;;;;;;;;;;;;;;19.23;58.63;100232.22;7399302;19;1894;-49
2023/03/16 05:32:02;;;;;;;;;;;;;;;19.21;58.64;100239.56;7399375;19;2208;-49
2023/03/16 05:34:30;;;;;;;;;;;;;;;19.36;58.12;100246.13;7399673;19;1765;-49
2023/03/16 05:36:59;;;;;;;;;;;;;;;19.53;57.81;100254.31;7399689;19;1728;-49
2023/03/16 05:39:30;;;;;;;;;;;;;;;19.47;57.77;100256.59;7400090;19;1719;-49
2023/03/16 05:41:59;;;;;;;;;;;;;;;19.38;57.99;100240.59;7400570;19;1850;-49
2023/03/16 05:44:27;;;;;;;;;;;;;;;19.40;58.44;100243.97;7400121;19;1876;-49
2023/03/16 05:46:55;;;;;;;;;;;;;;;19.41;58.35;100262.56;7399870;19;1747;-49
2023/03/16 05:49:24;;;;;;;;;;;;;;;18.87;54.34;100264.25;7389161;19;2133;-50
2023/03/16 05:51:53;;;;;;;;;;;;;;;18.22;56.51;100262.28;7398141;19;1852;-49
2023/03/16 05:54:21;;;;;;;;;;;;;;;17.79;58.10;100274.22;7396469;19;1779;-50
2023/03/16 05:56:53;;;;;;;;;;;;;;;17.57;57.48;100263.78;7398441;19;1898;-50
2023/03/16 05:59:21;;;;;;;;;;;;;;;17.40;56.94;100268.81;7397843;19;1838;-51
2023/03/16 06:01:50;;;;;;;;;;;;;;;17.31;55.13;100266.97;7389213;19;2156;-49
2023/03/16 06:04:18;;;;;;;;;;;;;;;17.28;57.82;100281.44;7399039;19;1853;-50
2023/03/16 06:06:47;;;;;;;;;;;;;;;17.34;58.40;100276.53;7398672;19;2118;-49
2023/03/16 06:09:15;;;;;;;;;;;;;;;17.34;58.48;100269.34;7400138;19;1873;-50
2023/03/16 06:11:43;;;;;;;;;;;;;;;17.30;58.67;100262.59;7399814;19;2174;-49
2023/03/16 06:14:14;;;;;;;;;;;;;;;17.33;59.07;100281.03;7397297;19;2240;-50
2023/03/16 06:16:42;;;;;;;;;;;;;;;17.30;59.27;100286.66;7398070;19;1825;-50
2023/03/16 06:19:11;;;;;;;;;;;;;;;17.25;59.45;100267.53;7399536;19;1841;-50
2023/03/16 06:21:39;;;;;;;;;;;;;;;17.28;59.49;100272.56;7398893;19;1627;-49
2023/03/16 06:24:08;;;;;;;;;;;;;;;17.06;51.98;100298.50;7398156;19;1887;-50
2023/03/16 06:26:36;;;;;;;;;;;;;;;17.06;57.33;100301.19;7400147;19;1813;-50
2023/03/16 06:29:04;;;;;;;;;;;;;;;17.13;58.30;100298.84;7400900;19;960;-49
2023/03/16 06:31:35;;;;;;;;;;;;;;;17.21;58.94;100306.16;7395415;19;1880;-50
2023/03/16 06:34:03;;;;;;;;;;;;;;;17.14;59.03;100311.19;7399445;19;1914;-49
2023/03/16 06:36:32;;;;;;;;;;;;;;;17.14;59.42;100326.38;7396711;19;1811;-51
2023/03/16 06:39:01;;;;;;;;;;;;;;;17.13;59.91;100338.03;7399240;19;2008;-50
2023/03/16 06:41:29;;;;;;;;;;;;;;;17.11;60.07;100340.88;7398485;19;2173;-50
2023/03/16 06:43:57;;;;;;;;;;;;;;;17.08;60.17;100349.97;7398005;19;1912;-50
2023/03/16 06:46:26;;;;;;;;;;;;;;;17.06;60.19;100341.25;7396615;19;2230;-51
2023/03/16 06:48:57;;;;;;;;;;;;;;;17.07;60.46;100352.81;7396272;19;2053;-49
2023/03/16 06:51:25;;;;;;;;;;;;;;;17.06;60.84;100367.97;7396809;19;1790;-50
2023/03/16 06:53:54;;;;;;;;;;;;;;;17.04;60.70;100361.06;7396351;19;2052;-49
2023/03/16 06:56:22;;;;;;;;;;;;;;;17.02;61.05;100382.56;7398531;19;1722;-50
2023/03/16 06:58:50;;;;;;;;;;;;;;;16.95;61.33;100384.09;7396885;19;2047;-49
2023/03/16 07:01:19;;;;;;;;;;;;;;;16.98;60.97;100383.81;7398107;19;2057;-51
2023/03/16 07:03:47;;;;;;;;;;;;;;;16.99;60.09;100377.50;7396778;19;1808;-50
2023/03/16 07:06:18;;;;;;;;;;;;;;;16.98;60.37;100391.81;7396499;19;1845;-50
2023/03/16 07:08:46;;;;;;;;;;;;;;;16.91;60.14;100396.00;7394201;19;1803;-49
2023/03/16 07:11:15;;;;;;;;;;;;;;;16.86;60.22;100399.06;7397358;19;1091;-50
2023/03/16 07:13:43;;;;;;;;;;;;;;;16.87;60.43;100402.56;7404891;19;1026;-50
2023/03/16 07:16:11;;;;;;;;;;;;;;;16.87;60.34;100426.59;7406893;19;2213;-50
2023/03/16 07:18:43;;;;;;;;;;;;;;;16.80;60.19;100422.75;7406380;19;2183;-50
2023/03/16 07:21:11;;;;;;;;;;;;;;;16.76;60.31;100416.81;7405534;19;2159;-50
2023/03/16 07:23:42;;;;;;;;;;;;;;;16.77;60.47;100423.00;7406090;19;2053;-50
2023/03/16 07:26:10;;;;;;;;;;;;;;;16.76;60.54;100430.16;7404982;19;1857;-49
2023/03/16 07:28:39;;;;;;;;;;;;;;;16.74;60.79;100447.28;7405974;19;2176;-50
2023/03/16 07:31:08;;;;;;;;;;;;;;;16.70;60.85;100431.50;7404027;19;1983;-50
2023/03/16 07:33:37;;;;;;;;;;;;;;;16.72;60.68;100446.56;7404772;19;1190;-50
2023/03/16 07:36:05;;;;;;;;;;;;;;;16.69;60.62;100440.53;7406290;19;2190;-50
2023/03/16 07:38:34;;;;;;;;;;;;;;;16.66;60.85;100440.75;7405174;19;2117;-50
2023/03/16 07:41:05;;;;;;;;;;;;;;;16.70;60.79;100454.72;7405688;19;2086;-50
2023/03/16 07:43:33;;;;;;;;;;;;;;;16.58;60.71;100427.22;7405605;19;2045;-50
2023/03/16 07:46:03;;;;;;;;;;;;;;;16.65;61.05;100452.44;7402798;19;2119;-49
2023/03/16 07:48:31;;;;;;;;;;;;;;;16.62;60.55;100444.66;7404746;19;2055;-50
2023/03/16 07:50:59;;;;;;;;;;;;;;;16.59;60.60;100450.28;7403065;19;1999;-50
2023/03/16 07:53:27;;;;;;;;;;;;;;;16.58;60.85;100461.06;7405347;19;1694;-50
2023/03/16 07:55:56;;;;;;;;;;;;;;;16.60;60.88;100451.13;7405462;19;2045;-50
2023/03/16 07:58:28;;;;;;;;;;;;;;;16.53;60.99;100450.75;7405166;19;2091;-50
2023/03/16 08:00:57;;;;;;;;;;;;;;;16.56;60.92;100461.19;7405111;19;2010;-50
2023/03/16 08:03:26;;;;;;;;;;;;;;;16.56;60.92;100469.19;7405311;19;1317;-50
2023/03/16 08:05:54;;;;;;;;;;;;;;;16.57;61.39;100473.56;7402501;19;2234;-50
2023/03/16 08:08:23;;;;;;;;;;;;;;;16.54;61.31;100462.31;7401764;19;2531;-50
2023/03/16 08:10:51;;;;;;;;;;;;;;;16.56;61.83;100461.19;7404421;19;1779;-49
2023/03/16 08:13:21;;;;;;;;;;;;;;;16.53;61.19;100476.59;7405124;19;1033;-50
2023/03/16 08:15:57;;;;;;;;;;;;;;;16.57;61.42;100467.38;7403618;19;2201;-50
2023/03/16 08:18:26;;;;;;;;;;;;;;;16.54;61.38;100470.31;7405016;19;1820;-50
2023/03/16 08:20:55;;;;;;;;;;;;;;;16.50;61.59;100478.56;7404504;19;2008;-50
2023/03/16 08:23:23;;;;;;;;;;;;;;;16.51;61.69;100474.06;7402256;19;1982;-49
2023/03/16 08:25:53;;;;;;;;;;;;;;;16.50;61.75;100496.41;7403004;19;1849;-49
2023/03/16 08:28:24;;;;;;;;;;;;;;;16.47;61.39;100488.63;7404971;19;1024;-50
2023/03/16 08:30:57;;;;;;;;;;;;;;;16.45;61.55;100477.22;7400894;19;2083;-49
2023/03/16 08:33:26;;;;;;;;;;;;;;;16.46;61.59;100503.81;7404391;19;2044;-50
2023/03/16 08:35:54;;;;;;;;;;;;;;;16.45;61.91;100493.25;7404554;19;1021;-50
2023/03/16 08:38:24;;;;;;;;;;;;;;;16.43;61.78;100503.19;7404385;19;1231;-50
2023/03/16 08:40:52;;;;;;;;;;;;;;;16.42;61.86;100507.69;7402862;19;2196;-50
2023/03/16 08:43:21;;;;;;;;;;;;;;;16.42;61.79;100512.19;7403189;19;2058;-50
2023/03/16 08:45:50;;;;;;;;;;;;;;;16.37;61.74;100487.69;7402823;19;1857;-50
2023/03/16 08:48:21;;;;;;;;;;;;;;;16.39;61.57;100504.44;7402704;19;2231;-50
2023/03/16 08:50:50;;;;;;;;;;;;;;;16.38;62.11;100494.75;7403630;19;2030;-50
2023/03/16 08:53:19;;;;;;;;;;;;;;;16.38;62.08;100505.41;7403195;19;2070;-50
2023/03/16 08:55:48;;;;;;;;;;;;;;;16.38;61.70;100511.59;7402655;19;1920;-49
2023/03/16 08:58:16;;;;;;;;;;;;;;;16.34;61.55;100501.31;7403209;19;2106;-49
2023/03/16 09:00:44;;;;;;;;;;;;;;;16.34;61.70;100515.47;7403442;19;1971;-50
2023/03/16 09:03:14;;;;;;;;;;;;;;;16.35;61.63;100505.66;7403575;19;1849;-50
2023/03/16 09:05:45;;;;;;;;;;;;;;;16.33;61.82;100519.09;7401117;19;2225;-50
2023/03/16 09:08:13;;;;;;;;;;;;;;;16.35;61.82;100519.84;7401684;19;2080;-50
2023/03/16 09:10:42;;;;;;;;;;;;;;;16.39;61.62;100528.44;7403119;19;2048;-49
2023/03/16 09:13:10;;;;;;;;;;;;;;;16.32;62.13;100509.44;7402177;19;1912;-50
2023/03/16 09:15:38;;;;;;;;;;;;;;;16.39;61.83;100531.09;7401654;19;2081;-50
2023/03/16 09:18:07;;;;;;;;;;;;;;;16.37;61.83;100523.22;7399779;19;1966;-50
2023/03/16 09:20:36;;;;;;;;;;;;;;;16.34;61.82;100530.66;7401177;19;1996;-50
2023/03/16 09:23:07;;;;;;;;;;;;;;;16.37;62.01;100549.91;7402745;19;1954;-50
2023/03/16 09:25:35;;;;;;;;;;;;;;;16.35;62.09;100537.66;7401872;19;2124;-50
2023/03/16 09:28:03;;;;;;;;;;;;;;;16.36;61.87;100531.38;7401693;19;1855;-50
2023/03/16 09:30:31;;;;;;;;;;;;;;;16.33;62.02;100539.63;7402765;19;2047;-50
2023/03/16 09:33:00;;;;;;;;;;;;;;;16.29;61.98;100544.34;7402107;19;1126;-50
2023/03/16 09:35:28;;;;;;;;;;;;;;;16.27;61.82;100541.81;7401179;19;2033;-50
2023/03/16 09:37:57;;;;;;;;;;;;;;;16.29;61.84;100555.88;7401055;19;1819;-50
2023/03/16 09:40:29;;;;;;;;;;;;;;;16.25;61.86;100553.56;7401703;19;1954;-49
2023/03/16 09:43:04;;;;;;;;;;;;;;;16.25;61.88;100559.78;7400200;19;2052;-50
2023/03/16 09:45:37;;;;;;;;;;;;;;;16.24;62.05;100560.72;7399310;19;2103;-49
2023/03/16 09:48:08;;;;;;;;;;;;;;;16.24;62.03;100558.06;7401428;19;1679;-50
2023/03/16 09:50:39;;;;;;;;;;;;;;;16.24;62.04;100566.06;7401303;19;2032;-50
2023/03/16 09:53:10;;;;;;;;;;;;;;;16.25;61.99;100581.13;7401594;19;2147;-50
2023/03/16 09:55:43;;;;;;;;;;;;;;;16.26;62.24;100581.97;7402785;19;1054;-50
2023/03/16 09:58:17;;;;;;;;;;;;;;;16.24;62.31;100590.09;7399392;19;2213;-49
2023/03/16 10:00:51;;;;;;;;;;;;;;;16.26;62.29;100592.63;7399632;19;2062;-49
2023/03/16 10:03:29;;;;;;;;;;;;;;;16.99;60.31;100571.63;7401921;19;1030;-50
2023/03/16 10:06:01;;;;;;;;;;;;;;;17.94;57.70;100576.13;7400278;19;2120;-50
2023/03/16 10:08:33;;;;;;;;;;;;;;;18.48;56.10;100591.84;7399378;19;1871;-50
2023/03/16 10:11:19;;;;;;;;;;;;;;;18.24;56.61;100584.16;7400233;19;2192;-49
2023/03/16 10:13:50;;;;;;;;;;;;;;;18.27;57.08;100580.38;7401346;19;2054;-50
2023/03/16 10:16:19;;;;;;;;;;;;;;;18.27;57.14;100583.88;7401483;19;2015;-49
2023/03/16 10:18:49;;;;;;;;;;;;;;;18.27;57.06;100589.25;7400539;19;2049;-50
2023/03/16 10:21:19;;;;;;;;;;;;;;;17.64;58.23;100586.63;7400232;19;1995;-49
2023/03/16 10:23:48;;;;;;;;;;;;;;;17.26;59.70;100600.56;7400555;19;2043;-50
2023/03/16 10:26:22;;;;;;;;;;;;;;;16.99;59.92;100588.53;7399076;19;2011;-50
2023/03/16 10:28:51;;;;;;;;;;;;;;;16.87;60.65;100609.09;7399235;19;1997;-50
2023/03/16 10:31:23;;;;;;;;;;;;;;;16.73;60.69;100585.28;7399083;19;1942;-50
2023/03/16 10:33:55;;;;;;;;;;;;;;;16.65;60.96;100593.94;7400885;19;1972;-50
2023/03/16 10:36:27;;;;;;;;;;;;;;;16.63;61.26;100611.91;7400333;19;997;-50
2023/03/16 10:38:57;;;;;;;;;;;;;;;16.64;61.23;100607.41;7401488;19;1003;-50
2023/03/16 10:41:30;;;;;;;;;;;;;;;16.60;61.58;100603.28;7399527;19;1879;-49
2023/03/16 10:44:05;;;;;;;;;;;;;;;16.54;61.25;100601.09;7399264;19;1965;-50
2023/03/16 10:46:38;;;;;;;;;;;;;;;16.53;61.27;100604.72;7404473;19;1866;-50
2023/03/16 10:49:07;;;;;;;;;;;;;;;16.55;61.43;100608.97;7407559;19;2062;-50
2023/03/16 10:51:37;;;;;;;;;;;;;;;16.47;61.66;100603.41;7406675;19;2118;-50
2023/03/16 10:54:09;;;;;;;;;;;;;;;16.42;61.21;100592.25;7406611;19;2028;-49
2023/03/16 10:56:40;;;;;;;;;;;;;;;16.48;61.68;100605.13;7405737;19;2137;-50
2023/03/16 10:59:27;;;;;;;;;;;;;;;16.42;61.33;100600.28;7405861;19;1909;-50
2023/03/16 11:01:55;;;;;;;;;;;;;;;16.38;54.78;100607.66;7405620;19;2061;-50
2023/03/16 11:04:24;;;;;;;;;;;;;;;16.37;60.37;100597.09;7406208;19;1881;-50
2023/03/16 11:06:57;;;;;;;;;;;;;;;16.41;60.16;100593.22;7401079;19;2382;-40
2023/03/16 11:09:27;;;;;;;;;;;;;;;16.41;60.26;100601.22;7407510;19;2273;-40
2023/03/16 11:11:57;;;;;;;;;;;;;;;16.46;60.74;100583.88;7405426;19;1784;-40
2023/03/16 11:14:27;;;;;;;;;;;;;;;17.40;59.03;100610.94;7406518;19;1886;-40
2023/03/16 11:17:01;;;;;;;;;;;;;;;18.17;56.48;100593.72;7407383;19;1611;-40
2023/03/16 11:19:31;;;;;;;;;;;;;;;18.61;55.66;100602.31;7406711;19;2192;-40
2023/03/16 11:22:02;;;;;;;;;;;;;;;18.55;55.41;100592.16;7405421;19;2197;-50
2023/03/16 11:24:34;;;;;;;;;;;;;;;18.22;56.63;100598.66;7406306;19;1917;-50
2023/03/16 11:27:07;;;;;;;;;;;;;;;18.30;56.78;100601.50;7403035;19;1862;-48
2023/03/16 11:29:44;;;;;;;;;;;;;;;18.35;56.49;100609.16;7406370;19;1990;-47
2023/03/16 11:32:14;;;;;;;;;;;;;;;18.39;56.70;100591.81;7404505;19;1882;-50
2023/03/16 11:34:43;;;;;;;;;;;;;;;18.45;56.19;100610.03;7403543;19;2169;-50
2023/03/16 11:37:20;;;;;;;;;;;;;;;18.53;56.10;100595.97;7404531;19;1793;-50
2023/03/16 11:39:55;;;;;;;;;;;;;;;18.60;56.22;100600.63;7405949;19;1647;-50
2023/03/16 11:42:39;;;;;;;;;;;;;;;18.68;55.77;100613.31;7404891;19;2524;-50
2023/03/16 11:45:16;;;;;;;;;;;;;;;18.74;56.06;100607.44;7404881;19;1865;-51
2023/03/16 11:47:55;;;;;;;;;;;;;;;18.72;55.83;100612.09;7401561;19;2006;-51
2023/03/16 11:50:27;;;;;;;;;;;;;;;18.72;55.75;100609.41;7403443;19;1889;-50
2023/03/16 11:53:00;;;;;;;;;;;;;;;18.61;56.17;100605.00;7403277;19;1831;-51
2023/03/16 11:55:35;;;;;;;;;;;;;;;18.57;56.35;100622.31;7405603;19;1679;-51
2023/03/16 11:58:14;;;;;;;;;;;;;;;18.62;55.96;100620.09;7404351;19;1757;-51
2023/03/16 12:00:46;;;;;;;;;;;;;;;18.66;56.16;100621.50;7404649;19;1819;-50
2023/03/16 12:03:29;;;;;;;;;;;;;;;18.73;55.90;100610.25;7404385;19;1629;-51
2023/03/16 12:06:00;;;;;;;;;;;;;;;18.78;55.60;100610.66;7400721;19;2315;-51
2023/03/16 12:08:41;;;;;;;;;;;;;;;18.85;55.87;100623.41;7402438;19;1931;-50
2023/03/16 12:11:12;;;;;;;;;;;;;;;18.83;55.99;100629.88;7404109;19;1663;-51
2023/03/16 12:13:54;;;;;;;;;;;;;;;18.90;55.62;100633.72;7405649;19;1511;-50
2023/03/16 12:16:25;;;;;;;;;;;;;;;19.18;55.24;100628.50;7403985;19;1626;-50
2023/03/16 12:18:56;;;;;;;;;;;;;;;19.03;55.45;100649.53;7404597;19;1731;-50
2023/03/16 12:21:31;;;;;;;;;;;;;;;19.12;54.99;100623.72;7401726;19;1890;-50
2023/03/16 12:24:01;;;;;;;;;;;;;;;19.28;54.78;100632.06;7402991;19;1794;-50
2023/03/16 12:26:33;;;;;;;;;;;;;;;19.07;55.20;100638.38;7400738;19;2157;-50
2023/03/16 12:29:06;;;;;;;;;;;;;;;18.80;55.50;100648.91;7403421;19;1902;-50
2023/03/16 12:31:39;;;;;;;;;;;;;;;18.73;55.88;100631.66;7403655;19;1766;-50
2023/03/16 12:34:10;;;;;;;;;;;;;;;18.98;55.45;100641.91;7403597;19;1696;-49
2023/03/16 12:36:56;;;;;;;;;;;;;;;19.11;54.52;100651.53;7400515;19;1858;-50
2023/03/16 12:39:42;;;;;;;;;;;;;;;19.28;54.67;100648.16;7403879;19;1663;-47
2023/03/16 12:42:16;;;;;;;;;;;;;;;19.26;55.07;100644.78;7402211;19;1623;-47
2023/03/16 12:44:49;;;;;;;;;;;;;;;19.46;54.56;100649.16;7402295;19;1853;-47
2023/03/16 12:47:22;;;;;;;;;;;;;;;19.48;54.77;100649.84;7401071;19;1861;-47
2023/03/16 12:49:51;;;;;;;;;;;;;;;19.53;54.74;100651.25;7403718;19;1841;-47
2023/03/16 12:52:19;;;;;;;;;;;;;;;19.46;54.71;100641.09;7402802;19;1849;-47
2023/03/16 12:54:53;;;;;;;;;;;;;;;19.57;54.69;100668.75;7404715;19;1022;-46
2023/03/16 12:57:25;;;;;;;;;;;;;;;19.68;54.18;100650.69;7401137;19;2210;-47
2023/03/16 13:00:00;;;;;;;;;;;;;;;19.61;54.64;100673.69;7402647;19;1817;-47
2023/03/16 13:02:31;;;;;;;;;;;;;;;19.64;54.61;100662.69;7403261;19;1811;-47
2023/03/16 13:05:01;;;;;;;;;;;;;;;19.48;54.50;100665.94;7401342;19;2200;-47